Wetterstation Vordersexau
Wetterdaten: Woche 19.10.15 - 25.10.15 (KW43)
Datum Zeit Temp. A. Feuchte A. Luftdruck Regen Wind Richtung Taupunkt Windchill Windben
19.10.2015 00:00 6,6 C 85 % 1016,5 hPa 0,0 l/m 0,0 km/h N-NO 4,3 C 6,6 C 0,0 km/h
19.10.2015 01:00 6,5 C 86 % 1016,4 hPa 0,0 l/m 0,0 km/h N-NO 4,3 C 6,5 C 0,0 km/h
19.10.2015 02:00 6,2 C 86 % 1016,7 hPa 0,0 l/m 0,0 km/h N-NO 4,0 C 6,2 C 0,0 km/h
19.10.2015 03:00 6,1 C 87 % 1016,7 hPa 0,0 l/m 0,0 km/h N-NO 4,1 C 6,1 C 0,0 km/h
19.10.2015 04:00 6,1 C 87 % 1016,9 hPa 0,0 l/m 0,0 km/h N-NO 4,1 C 6,1 C 0,0 km/h
19.10.2015 05:00 5,9 C 87 % 1017,1 hPa 0,0 l/m 0,0 km/h N-NO 3,9 C 5,9 C 0,0 km/h
19.10.2015 06:00 6,1 C 87 % 1017,1 hPa 0,0 l/m 0,0 km/h N-NO 4,1 C 6,1 C 0,0 km/h
19.10.2015 07:00 5,6 C 87 % 1017,4 hPa 0,0 l/m 0,0 km/h N-NO 3,6 C 5,6 C 0,0 km/h
19.10.2015 08:00 5,5 C 86 % 1018,0 hPa 0,0 l/m 0,0 km/h N-NO 3,3 C 5,5 C 0,0 km/h
19.10.2015 09:00 7,8 C 87 % 1018,3 hPa 0,0 l/m 0,0 km/h NW 5,8 C 7,8 C 0,0 km/h
19.10.2015 10:00 8,4 C 83 % 1018,6 hPa 0,0 l/m 0,0 km/h W-NW 5,7 C 8,4 C 0,0 km/h
19.10.2015 11:00 14,8 C 71 % 1018,6 hPa 0,0 l/m 0,0 km/h N-NO 9,6 C 14,8 C 0,0 km/h
19.10.2015 12:00 15,9 C 61 % 1018,3 hPa 0,0 l/m 0,0 km/h N-NW 8,4 C 15,9 C 0,0 km/h
19.10.2015 13:00 15,8 C 60 % 1017,7 hPa 0,0 l/m 0,0 km/h NW 8,1 C 15,8 C 0,0 km/h
19.10.2015 14:00 16,9 C 56 % 1017,3 hPa 0,0 l/m 0,0 km/h NW 8,1 C 16,9 C 0,0 km/h
19.10.2015 15:00 17,5 C 55 % 1017,1 hPa 0,0 l/m 0,0 km/h W-NW 8,4 C 17,5 C 0,0 km/h
19.10.2015 16:00 13,3 C 61 % 1017,1 hPa 0,0 l/m 0,0 km/h W 5,9 C 13,3 C 0,0 km/h
19.10.2015 17:00 15,1 C 56 % 1017,2 hPa 0,0 l/m 0,0 km/h W-NW 6,4 C 15,1 C 0,0 km/h
19.10.2015 18:00 8,9 C 68 % 1017,3 hPa 0,0 l/m 0,0 km/h W-NW 3,3 C 8,9 C 0,0 km/h
19.10.2015 19:00 5,3 C 77 % 1018,0 hPa 0,0 l/m 0,0 km/h S-SO 1,6 C 5,3 C 0,0 km/h
19.10.2015 20:00 3,9 C 82 % 1018,2 hPa 0,0 l/m 0,0 km/h S-SO 1,1 C 3,9 C 0,0 km/h
19.10.2015 21:00 3,2 C 84 % 1018,3 hPa 0,0 l/m 0,0 km/h SO 0,8 C 3,2 C 0,0 km/h
19.10.2015 22:00 3,6 C 85 % 1018,5 hPa 0,0 l/m 0,0 km/h SO 1,3 C 3,6 C 0,0 km/h
19.10.2015 23:00 2,3 C 86 % 1018,8 hPa 0,0 l/m 0,0 km/h O-NO 0,2 C 2,3 C 0,0 km/h
20.10.2015 00:00 1,8 C 86 % 1018,6 hPa 0,0 l/m 0,0 km/h O-NO -0,3 C 1,8 C 0,0 km/h
20.10.2015 01:00 1,3 C 87 % 1018,5 hPa 0,0 l/m 0,0 km/h NW -0,6 C 1,3 C 0,0 km/h
20.10.2015 02:00 2,1 C 87 % 1018,3 hPa 0,0 l/m 0,0 km/h NO 0,2 C 2,1 C 0,0 km/h
20.10.2015 03:00 1,9 C 87 % 1018,3 hPa 0,0 l/m 0,0 km/h NO -0,0 C 1,9 C 0,0 km/h
20.10.2015 04:00 0,7 C 87 % 1018,3 hPa 0,0 l/m 0,0 km/h N-NW -1,2 C 0,7 C 0,0 km/h
20.10.2015 05:00 -0,2 C 87 % 1018,8 hPa 0,0 l/m 0,0 km/h N-NW -2,1 C -0,2 C 0,0 km/h
20.10.2015 06:00 -0,8 C 87 % 1018,8 hPa 0,0 l/m 0,0 km/h N-NW -2,7 C -0,8 C 0,0 km/h
20.10.2015 07:00 -0,9 C 87 % 1019,0 hPa 0,0 l/m 0,0 km/h N-NO -2,8 C -0,9 C 0,0 km/h
20.10.2015 08:00 -0,4 C 87 % 1019,4 hPa 0,0 l/m 0,0 km/h O-SO -2,3 C -0,4 C 0,0 km/h
20.10.2015 09:00 3,8 C 85 % 1019,8 hPa 0,0 l/m 0,0 km/h N-NO 1,5 C 3,8 C 0,0 km/h
20.10.2015 10:00 5,8 C 86 % 1020,1 hPa 0,0 l/m 0,0 km/h O-NO 3,6 C 5,8 C 0,0 km/h
20.10.2015 11:00 8,6 C 86 % 1019,5 hPa 0,0 l/m 0,0 km/h NW 6,4 C 8,6 C 0,0 km/h
20.10.2015 12:00 14,1 C 66 % 1019,2 hPa 0,0 l/m 0,0 km/h NW 7,8 C 14,1 C 0,0 km/h
20.10.2015 13:00 15,1 C 64 % 1018,6 hPa 0,0 l/m 0,0 km/h N-NW 8,3 C 15,1 C 0,0 km/h
20.10.2015 14:00 17,6 C 53 % 1018,2 hPa 0,0 l/m 0,0 km/h N-NW 7,9 C 17,6 C 0,0 km/h
20.10.2015 15:00 16,3 C 53 % 1017,9 hPa 0,0 l/m 0,0 km/h N-NO 6,7 C 16,3 C 0,0 km/h
20.10.2015 16:00 13,4 C 61 % 1018,4 hPa 0,0 l/m 0,0 km/h O-SO 6,0 C 13,4 C 0,0 km/h
20.10.2015 17:00 11,2 C 68 % 1019,4 hPa 0,0 l/m 0,0 km/h O 5,5 C 11,2 C 0,0 km/h
20.10.2015 18:00 10,3 C 72 % 1019,5 hPa 0,0 l/m 0,0 km/h N-NO 5,5 C 10,3 C 0,0 km/h
20.10.2015 19:00 9,9 C 75 % 1019,5 hPa 0,0 l/m 0,0 km/h N 5,7 C 9,9 C 0,0 km/h
20.10.2015 20:00 9,2 C 76 % 1019,9 hPa 0,0 l/m 0,0 km/h O 5,2 C 9,2 C 0,0 km/h
20.10.2015 21:00 8,2 C 79 % 1020,0 hPa 0,0 l/m 0,0 km/h SO 4,8 C 8,2 C 0,0 km/h
20.10.2015 22:00 6,8 C 82 % 1020,1 hPa 0,0 l/m 0,0 km/h O-NO 3,9 C 6,8 C 0,0 km/h
20.10.2015 23:00 5,5 C 84 % 1020,0 hPa 0,0 l/m 0,0 km/h NO 3,0 C 5,5 C 0,0 km/h
21.10.2015 00:00 5,2 C 85 % 1019,6 hPa 0,0 l/m 0,0 km/h NO 2,9 C 5,2 C 0,0 km/h
21.10.2015 01:00 4,3 C 86 % 1019,5 hPa 0,0 l/m 0,0 km/h SO 2,2 C 4,3 C 0,0 km/h
21.10.2015 02:00 3,3 C 87 % 1019,3 hPa 0,0 l/m 0,0 km/h O-SO 1,3 C 3,3 C 0,0 km/h
21.10.2015 03:00 2,7 C 87 % 1019,3 hPa 0,0 l/m 0,0 km/h SO 0,8 C 2,7 C 0,0 km/h
21.10.2015 04:00 2,9 C 86 % 1019,0 hPa 0,0 l/m 0,0 km/h SO 0,8 C 2,9 C 0,0 km/h
21.10.2015 05:00 2,3 C 87 % 1019,2 hPa 0,0 l/m 0,0 km/h O-SO 0,4 C 2,3 C 0,0 km/h
21.10.2015 06:00 1,9 C 87 % 1019,0 hPa 0,0 l/m 0,0 km/h O-SO -0,0 C 1,9 C 0,0 km/h
21.10.2015 07:00 2,2 C 86 % 1018,7 hPa 0,0 l/m 0,0 km/h SO 0,1 C 2,2 C 0,0 km/h
21.10.2015 08:00 2,6 C 86 % 1019,2 hPa 0,0 l/m 0,0 km/h S-SO 0,5 C 2,6 C 0,0 km/h
21.10.2015 09:00 6,4 C 85 % 1019,4 hPa 0,0 l/m 0,0 km/h SO 4,1 C 6,4 C 0,0 km/h
21.10.2015 10:00 11,2 C 82 % 1019,2 hPa 0,0 l/m 0,0 km/h W-SW 8,2 C 11,2 C 0,0 km/h
21.10.2015 11:00 15,8 C 63 % 1019,3 hPa 0,0 l/m 0,0 km/h SO 8,8 C 15,8 C 0,0 km/h
21.10.2015 12:00 17,4 C 57 % 1018,4 hPa 0,0 l/m 0,0 km/h N-NO 8,8 C 17,4 C 0,0 km/h
21.10.2015 13:00 16,7 C 55 % 1018,0 hPa 0,0 l/m 0,0 km/h W-NW 7,6 C 16,7 C 0,0 km/h
21.10.2015 14:00 17,6 C 52 % 1017,4 hPa 0,0 l/m 0,0 km/h N 7,6 C 17,6 C 0,0 km/h
21.10.2015 15:00 17,7 C 50 % 1017,0 hPa 0,0 l/m 0,0 km/h N-NW 7,1 C 17,7 C 0,0 km/h
21.10.2015 16:00 18,6 C 49 % 1017,0 hPa 0,0 l/m 0,0 km/h N-NO 7,7 C 18,6 C 0,0 km/h
21.10.2015 17:00 13,8 C 59 % 1017,2 hPa 0,0 l/m 0,0 km/h N 5,9 C 13,8 C 0,0 km/h
21.10.2015 18:00 10,9 C 69 % 1017,0 hPa 0,0 l/m 0,0 km/h N 5,4 C 10,9 C 0,0 km/h
21.10.2015 19:00 9,8 C 73 % 1017,1 hPa 0,0 l/m 0,0 km/h N-NO 5,2 C 9,8 C 0,0 km/h
21.10.2015 20:00 9,0 C 76 % 1017,1 hPa 0,0 l/m 0,0 km/h O-NO 5,0 C 9,0 C 0,0 km/h
21.10.2015 21:00 8,5 C 80 % 1017,1 hPa 0,0 l/m 0,0 km/h O-NO 5,3 C 8,5 C 0,0 km/h
21.10.2015 22:00 6,1 C 82 % 1017,1 hPa 0,0 l/m 0,0 km/h O-NO 3,3 C 6,1 C 0,0 km/h
21.10.2015 23:00 6,2 C 84 % 1017,1 hPa 0,0 l/m 0,0 km/h NO 3,7 C 6,2 C 0,0 km/h
22.10.2015 00:00 6,7 C 85 % 1017,0 hPa 0,0 l/m 0,0 km/h NO 4,4 C 6,7 C 0,0 km/h
22.10.2015 01:00 6,9 C 85 % 1016,8 hPa 0,0 l/m 0,0 km/h NO 4,6 C 6,9 C 0,0 km/h
22.10.2015 02:00 7,1 C 86 % 1016,6 hPa 0,0 l/m 0,0 km/h NO 4,9 C 7,1 C 0,0 km/h
22.10.2015 03:00 7,0 C 86 % 1016,5 hPa 0,0 l/m 0,0 km/h NO 4,8 C 7,0 C 0,0 km/h
22.10.2015 04:00 6,6 C 86 % 1016,2 hPa 0,0 l/m 0,0 km/h NO 4,4 C 6,6 C 0,0 km/h
22.10.2015 05:00 5,5 C 86 % 1015,9 hPa 0,0 l/m 0,0 km/h NO 3,3 C 5,5 C 0,0 km/h
22.10.2015 06:00 4,9 C 87 % 1016,2 hPa 0,0 l/m 0,0 km/h NO 2,9 C 4,9 C 0,0 km/h
22.10.2015 07:00 4,9 C 87 % 1016,1 hPa 0,0 l/m 0,0 km/h NO 2,9 C 4,9 C 0,0 km/h
22.10.2015 08:00 5,8 C 87 % 1016,2 hPa 0,0 l/m 0,0 km/h SO 3,8 C 5,8 C 0,0 km/h
22.10.2015 09:00 9,5 C 85 % 1016,2 hPa 0,0 l/m 0,0 km/h NO 7,1 C 9,5 C 0,0 km/h
22.10.2015 10:00 12,2 C 78 % 1016,6 hPa 0,0 l/m 0,0 km/h SW 8,5 C 12,2 C 0,0 km/h
22.10.2015 11:00 13,5 C 70 % 1016,4 hPa 0,0 l/m 0,0 km/h S-SW 8,1 C 13,5 C 0,0 km/h
22.10.2015 12:00 13,8 C 64 % 1016,7 hPa 0,0 l/m 0,0 km/h W 7,1 C 13,8 C 0,0 km/h
22.10.2015 13:00 13,5 C 63 % 1016,3 hPa 0,0 l/m 0,0 km/h W-SW 6,6 C 13,5 C 0,0 km/h
22.10.2015 14:00 13,1 C 65 % 1016,3 hPa 0,0 l/m 0,0 km/h W-SW 6,7 C 13,1 C 0,0 km/h
22.10.2015 15:00 12,4 C 67 % 1016,5 hPa 0,0 l/m 0,0 km/h W-SW 6,4 C 12,4 C 0,0 km/h
22.10.2015 16:00 12,3 C 68 % 1016,6 hPa 0,0 l/m 0,0 km/h W 6,6 C 12,3 C 0,0 km/h
22.10.2015 17:00 11,9 C 70 % 1017,3 hPa 0,0 l/m 0,0 km/h W-SW 6,6 C 11,9 C 0,0 km/h
22.10.2015 18:00 11,5 C 72 % 1017,9 hPa 0,0 l/m 0,0 km/h SW 6,6 C 11,5 C 0,0 km/h
22.10.2015 19:00 11,4 C 74 % 1018,5 hPa 0,0 l/m 0,0 km/h W 6,9 C 11,4 C 0,0 km/h
22.10.2015 20:00 11,3 C 76 % 1019,0 hPa 0,0 l/m 0,0 km/h S-SW 7,2 C 11,3 C 0,0 km/h
22.10.2015 21:00 10,3 C 82 % 1019,6 hPa 0,0 l/m 0,0 km/h S-SO 7,4 C 10,3 C 0,0 km/h
22.10.2015 22:00 10,1 C 84 % 1019,9 hPa 0,0 l/m 0,0 km/h SO 7,5 C 10,1 C 0,0 km/h
22.10.2015 23:00 10,2 C 84 % 1020,1 hPa 0,0 l/m 0,0 km/h SO 7,6 C 10,2 C 0,0 km/h
23.10.2015 00:00 9,7 C 85 % 1020,5 hPa 0,0 l/m 0,0 km/h SO 7,3 C 9,7 C 0,0 km/h
23.10.2015 01:00 9,6 C 86 % 1020,7 hPa 0,0 l/m 0,0 km/h SO 7,4 C 9,6 C 0,0 km/h
23.10.2015 02:00 9,6 C 86 % 1021,0 hPa 0,0 l/m 0,0 km/h NO 7,4 C 9,6 C 0,0 km/h
23.10.2015 03:00 9,6 C 86 % 1021,0 hPa 0,0 l/m 0,0 km/h NO 7,4 C 9,6 C 0,0 km/h
23.10.2015 04:00 9,6 C 86 % 1021,2 hPa 0,0 l/m 0,0 km/h O-SO 7,4 C 9,6 C 0,0 km/h
23.10.2015 05:00 9,4 C 86 % 1021,1 hPa 0,0 l/m 0,0 km/h O-SO 7,2 C 9,4 C 0,0 km/h
23.10.2015 06:00 9,3 C 86 % 1021,1 hPa 0,0 l/m 0,0 km/h O-SO 7,1 C 9,3 C 0,0 km/h
23.10.2015 07:00 9,2 C 86 % 1021,7 hPa 0,0 l/m 0,0 km/h O-SO 7,0 C 9,2 C 0,0 km/h
23.10.2015 08:00 9,4 C 85 % 1021,7 hPa 0,0 l/m 0,0 km/h O-NO 7,0 C 9,4 C 0,0 km/h
23.10.2015 09:00 10,3 C 85 % 1022,2 hPa 0,0 l/m 0,0 km/h W 7,9 C 10,3 C 0,0 km/h
23.10.2015 10:00 12,4 C 85 % 1022,6 hPa 0,0 l/m 0,0 km/h W 9,9 C 12,4 C 0,0 km/h
23.10.2015 11:00 13,9 C 84 % 1022,4 hPa 0,0 l/m 0,0 km/h SO 11,2 C 13,9 C 0,0 km/h
23.10.2015 12:00 16,8 C 76 % 1022,2 hPa 0,0 l/m 0,0 km/h O-NO 12,5 C 16,8 C 0,0 km/h
23.10.2015 13:00 17,1 C 71 % 1021,5 hPa 0,0 l/m 0,0 km/h NO 11,8 C 17,1 C 0,0 km/h
23.10.2015 14:00 16,2 C 67 % 1020,8 hPa 0,0 l/m 0,0 km/h N-NW 10,1 C 16,2 C 0,0 km/h
23.10.2015 15:00 15,4 C 67 % 1020,7 hPa 0,0 l/m 0,0 km/h N-NO 9,3 C 15,4 C 0,0 km/h
23.10.2015 16:00 14,9 C 70 % 1019,8 hPa 0,0 l/m 0,0 km/h N 9,5 C 14,9 C 0,0 km/h
23.10.2015 17:00 13,9 C 73 % 1019,7 hPa 0,0 l/m 0,0 km/h N 9,1 C 13,9 C 0,0 km/h
23.10.2015 18:00 12,7 C 77 % 1019,8 hPa 0,0 l/m 0,0 km/h SO 8,8 C 12,7 C 0,0 km/h
23.10.2015 19:00 12,0 C 81 % 1019,9 hPa 0,0 l/m 0,0 km/h NO 8,8 C 12,0 C 0,0 km/h
23.10.2015 20:00 12,1 C 82 % 1019,2 hPa 0,0 l/m 0,0 km/h SO 9,1 C 12,1 C 0,0 km/h
23.10.2015 21:00 10,6 C 79 % 1019,4 hPa 0,0 l/m 0,0 km/h NO 7,1 C 10,6 C 0,0 km/h
23.10.2015 22:00 9,4 C 84 % 1019,8 hPa 0,0 l/m 0,0 km/h SO 6,8 C 9,4 C 0,0 km/h
23.10.2015 23:00 9,4 C 85 % 1019,4 hPa 0,0 l/m 0,0 km/h SO 7,0 C 9,4 C 0,0 km/h
24.10.2015 00:00 8,5 C 86 % 1018,8 hPa 0,0 l/m 0,0 km/h SO 6,3 C 8,5 C 0,0 km/h
24.10.2015 01:00 8,1 C 86 % 1018,4 hPa 0,0 l/m 0,0 km/h O 5,9 C 8,1 C 0,0 km/h
24.10.2015 02:00 6,4 C 87 % 1018,6 hPa 0,0 l/m 0,0 km/h O-SO 4,4 C 6,4 C 0,0 km/h
24.10.2015 03:00 5,6 C 86 % 1017,9 hPa 0,0 l/m 0,0 km/h NO 3,4 C 5,6 C 0,0 km/h
24.10.2015 04:00 5,3 C 86 % 1017,4 hPa 0,0 l/m 0,0 km/h SO 3,2 C 5,3 C 0,0 km/h
24.10.2015 05:00 4,9 C 86 % 1017,2 hPa 0,0 l/m 0,0 km/h SO 2,8 C 4,9 C 0,0 km/h
24.10.2015 06:00 4,6 C 86 % 1016,7 hPa 0,0 l/m 0,0 km/h SO 2,5 C 4,6 C 0,0 km/h
24.10.2015 07:00 4,6 C 85 % 1016,9 hPa 0,0 l/m 0,0 km/h SO 2,3 C 4,6 C 0,0 km/h
24.10.2015 08:00 4,3 C 85 % 1016,6 hPa 0,0 l/m 0,0 km/h SO 2,0 C 4,3 C 0,0 km/h
24.10.2015 09:00 9,1 C 84 % 1016,7 hPa 0,0 l/m 0,0 km/h SO 6,5 C 9,1 C 0,0 km/h
24.10.2015 10:00 12,9 C 86 % 1016,7 hPa 0,0 l/m 0,0 km/h SO 10,6 C 12,9 C 0,0 km/h
24.10.2015 11:00 18,5 C 65 % 1016,0 hPa 0,0 l/m 0,0 km/h S 11,8 C 18,5 C 0,0 km/h
24.10.2015 12:00 20,3 C 58 % 1015,9 hPa 0,0 l/m 0,0 km/h W-SW 11,8 C 20,3 C 0,0 km/h
24.10.2015 13:00 19,2 C 61 % 1015,3 hPa 0,0 l/m 0,0 km/h W-SW 11,5 C 19,2 C 0,0 km/h
24.10.2015 14:00 21,3 C 56 % 1014,9 hPa 0,0 l/m 0,0 km/h S-SW 12,2 C 21,3 C 0,0 km/h
24.10.2015 15:00 20,3 C 52 % 1015,1 hPa 0,0 l/m 0,0 km/h S 10,1 C 20,3 C 0,0 km/h
24.10.2015 16:00 19,3 C 48 % 1015,5 hPa 0,0 l/m 0,0 km/h SW 8,0 C 19,3 C 0,0 km/h
24.10.2015 17:00 18,0 C 50 % 1015,4 hPa 0,0 l/m 0,0 km/h N-NO 7,4 C 18,0 C 0,0 km/h
24.10.2015 18:00 14,3 C 64 % 1015,6 hPa 0,0 l/m 0,0 km/h O-SO 7,6 C 14,3 C 0,0 km/h
24.10.2015 19:00 11,1 C 76 % 1016,2 hPa 0,0 l/m 0,0 km/h N-NO 7,0 C 11,1 C 0,0 km/h
24.10.2015 20:00 10,1 C 80 % 1016,7 hPa 0,0 l/m 0,0 km/h O-NO 6,8 C 10,1 C 0,0 km/h
24.10.2015 21:00 9,5 C 82 % 1017,2 hPa 0,0 l/m 0,0 km/h O-NO 6,6 C 9,5 C 0,0 km/h
24.10.2015 22:00 9,3 C 83 % 1017,8 hPa 0,0 l/m 0,0 km/h N-NO 6,6 C 9,3 C 0,0 km/h
24.10.2015 23:00 9,0 C 84 % 1018,0 hPa 0,0 l/m 0,0 km/h NO 6,4 C 9,0 C 0,0 km/h
25.10.2015 00:00 10,3 C 81 % 1018,2 hPa 0,0 l/m 0,0 km/h N-NO 7,2 C 10,3 C 0,0 km/h
25.10.2015 01:00 9,9 C 82 % 1018,5 hPa 0,0 l/m 0,0 km/h N-NO 7,0 C 9,9 C 0,0 km/h
25.10.2015 02:00 10,6 C 81 % 1018,9 hPa 0,0 l/m 0,0 km/h NO 7,5 C 10,6 C 0,0 km/h
25.10.2015 03:00 10,1 C 82 % 1019,2 hPa 0,0 l/m 0,0 km/h N-NO 7,2 C 10,1 C 0,0 km/h
25.10.2015 04:00 10,2 C 82 % 1019,7 hPa 0,0 l/m 0,0 km/h N-NO 7,3 C 10,2 C 0,0 km/h
25.10.2015 05:00 9,9 C 83 % 1020,5 hPa 0,0 l/m 0,0 km/h O-SO 7,2 C 9,9 C 0,0 km/h
25.10.2015 06:00 10,3 C 85 % 1021,3 hPa 0,0 l/m 0,0 km/h O-SO 7,9 C 10,3 C 0,0 km/h
25.10.2015 07:00 10,9 C 86 % 1021,6 hPa 0,0 l/m 0,0 km/h SO 8,7 C 10,9 C 0,0 km/h
25.10.2015 08:00 12,6 C 85 % 1022,3 hPa 0,0 l/m 0,0 km/h N 10,1 C 12,6 C 0,0 km/h
25.10.2015 09:00 13,9 C 84 % 1022,4 hPa 0,0 l/m 0,0 km/h N-NW 11,2 C 13,9 C 0,0 km/h
25.10.2015 10:00 17,9 C 69 % 1022,6 hPa 0,0 l/m 0,0 km/h N-NW 12,1 C 17,9 C 0,0 km/h
25.10.2015 11:00 17,9 C 69 % 1022,4 hPa 0,0 l/m 0,0 km/h S-SO 12,1 C 17,9 C 0,0 km/h
25.10.2015 12:00 0,0 C 0 % 1021,7 hPa 0,0 l/m 0,0 km/h N-NO -60,0 C 0,0 C 0,0 km/h
25.10.2015 13:00 18,2 C 61 % 1021,6 hPa 0,0 l/m 0,0 km/h N-NO 10,6 C 18,2 C 0,0 km/h
25.10.2015 14:00 21,2 C 61 % 1021,5 hPa 0,0 l/m 0,0 km/h N-NO 13,4 C 21,2 C 0,0 km/h
25.10.2015 15:00 18,2 C 59 % 1021,0 hPa 0,0 l/m 0,0 km/h NO 10,1 C 18,2 C 0,0 km/h
25.10.2015 16:00 22,3 C 51 % 1020,9 hPa 0,0 l/m 0,0 km/h NO 11,7 C 22,3 C 0,0 km/h
25.10.2015 17:00 13,9 C 64 % 1021,0 hPa 0,0 l/m 0,0 km/h O 7,2 C 13,9 C 0,0 km/h
25.10.2015 18:00 13,9 C 64 % 1021,3 hPa 0,0 l/m 0,0 km/h O 7,2 C 13,9 C 0,0 km/h
25.10.2015 19:00 0,0 C 0 % 1021,2 hPa 0,0 l/m 0,0 km/h O-NO -60,0 C 0,0 C 0,0 km/h
25.10.2015 20:00 9,0 C 84 % 1021,0 hPa 0,0 l/m 0,0 km/h O-SO 6,4 C 9,0 C 0,0 km/h
25.10.2015 21:00 8,9 C 85 % 1021,3 hPa 0,0 l/m 0,0 km/h SO 6,5 C 8,9 C 0,0 km/h
25.10.2015 22:00 8,9 C 84 % 1020,6 hPa 0,0 l/m 0,0 km/h O-SO 6,3 C 8,9 C 0,0 km/h
25.10.2015 23:00 7,8 C 85 % 1020,1 hPa 0,0 l/m 0,0 km/h O-NO 5,4 C 7,8 C 0,0 km/h
Min-Datum _ 20.10.15 25.10.15 24.10.15 - 19.10.15 - 25.10.15 20.10.15 19.10.15
_ Min-Zeit 07:42 12:42 14:42 - 00:42 - 12:42 07:42 00:42
Minimum _ -0,9 C 0 % 1014,9 hPa - 0,0 km/h - -60,0 C -0,9 C 0,0 km/h
Max-Datum _ 25.10.15 19.10.15 23.10.15 19.10.15 19.10.15 - 25.10.15 25.10.15 19.10.15
_ Max-Zeit 16:42 03:42 10:42 00:42 00:42 - 14:42 16:42 00:42
Maximum _ 22,3 C 87 % 1022,6 hPa 0,0 l/m 0,0 km/h
N-NO
- 13,4 C 22,3 C 0,0 km/h
N-NO
Durchschnitt _ 9,9 C 76 % 1018,6 hPa #0,0 l/m 0,0 km/h SO 5,1 C 9,9 C 0,0 km/h
www.sexauwetter.de